Medford, Oklahoma
Current Conditions -  °F | °C
As of 3:50 PM on Monday 26 Jan 2015 (Local Time) from KWDG Reporting Station
Few Clouds Few Clouds  
Wind Chill: 75°   Ceiling: Unl
Heat Index: 75°   Visibility: 10mi
Dew Point: 36°   Wind: 15mph
Humidity: 24%   Direction: 300°WNW
Pressure: 30.01"   Gusts: 21mph
Location:  36.81°N, 97.73°W
Report Text: KWDG 262150Z 30013G18KT 10SM FEW200 24/02 A3001
Loading
Personal Weather Stations






























Interactive Weather Map New forecast layout! Learn more

10-Day Weather Forecast

Advertisements
Track Severe Weather on mobile